Time;durP1;ratioP1;P1;durP2;ratioP2;P2;SDS_P1;SDS_P2;PMS_P1;PMS_P2;Temp;Humidity;BMP_temperature;BMP_pressure;BME280_temperature;BME280_humidity;BME280_pressure;Samples;Min_cycle;Max_cycle;Signal;HPM_P1;HPM_P2
2022/02/27 00:00:53;;;;;;;21.17;10.30;;;-0.20;1.00;;;;;;5071584;28;20202;-74
2022/02/27 00:03:20;;;;;;;18.83;10.17;;;-0.20;1.00;;;;;;5066985;28;20284;-74
2022/02/27 00:05:47;;;;;;;24.33;11.70;;;-0.30;1.00;;;;;;5063733;28;20615;-74
2022/02/27 00:08:16;;;;;;;20.83;10.63;;;-0.20;1.00;;;;;;5073346;28;20248;-74
2022/02/27 00:10:43;;;;;;;25.47;10.77;;;-0.10;1.00;;;;;;5071858;28;20259;-74
2022/02/27 00:13:10;;;;;;;19.27;9.77;;;0.00;1.00;;;;;;5072076;28;20210;-74
2022/02/27 00:15:37;;;;;;;18.63;10.37;;;-0.20;1.00;;;;;;5071886;28;20260;-74
2022/02/27 00:18:04;;;;;;;18.17;10.07;;;-0.40;1.00;;;;;;5071387;28;20268;-74
2022/02/27 00:20:31;;;;;;;19.53;9.20;;;-0.20;1.00;;;;;;5071628;28;20212;-74
2022/02/27 00:22:58;;;;;;;17.77;9.17;;;-0.30;1.00;;;;;;5071699;28;20234;-74
2022/02/27 00:25:27;;;;;;;16.50;9.07;;;-0.10;1.00;;;;;;5071050;28;20226;-74
2022/02/27 00:27:54;;;;;;;24.77;8.70;;;0.10;1.00;;;;;;5057895;28;20202;-74
2022/02/27 00:30:21;;;;;;;17.47;8.53;;;0.00;1.00;;;;;;5071697;28;20641;-74
2022/02/27 00:32:48;;;;;;;19.43;9.57;;;-0.20;1.00;;;;;;5072353;28;20718;-74
2022/02/27 00:35:15;;;;;;;16.97;8.83;;;0.00;1.00;;;;;;5071913;28;20202;-74
2022/02/27 00:37:44;;;;;;;19.87;8.87;;;-0.30;1.00;;;;;;5071925;28;20623;-74
2022/02/27 00:40:12;;;;;;;21.03;9.53;;;-0.30;1.00;;;;;;5071237;28;20206;-74
2022/02/27 00:42:41;;;;;;;18.80;9.60;;;-0.20;1.00;;;;;;5071738;28;20673;-75
2022/02/27 00:45:09;;;;;;;21.03;8.97;;;-0.20;1.00;;;;;;5073046;28;20275;-74
2022/02/27 00:47:37;;;;;;;17.57;9.50;;;-0.30;1.00;;;;;;5075115;28;20202;-74
2022/02/27 00:50:04;;;;;;;17.93;8.97;;;-0.40;1.00;;;;;;5075484;28;20214;-74
2022/02/27 00:52:31;;;;;;;15.20;9.07;;;-0.40;1.00;;;;;;5074331;28;20225;-75
2022/02/27 00:54:58;;;;;;;17.23;8.90;;;-0.40;1.00;;;;;;5075455;28;20207;-74
2022/02/27 00:57:25;;;;;;;16.57;8.47;;;-0.40;1.00;;;;;;5075700;28;20247;-74
2022/02/27 00:59:55;;;;;;;15.27;7.90;;;-0.40;1.00;;;;;;5074468;28;20186;-74
2022/02/27 01:02:22;;;;;;;18.40;8.27;;;-0.60;1.00;;;;;;5075108;28;20586;-74
2022/02/27 01:04:49;;;;;;;17.20;8.33;;;-0.60;1.00;;;;;;5075635;28;20248;-74
2022/02/27 01:07:16;;;;;;;15.80;8.03;;;-0.60;1.00;;;;;;5074209;28;20198;-75
2022/02/27 01:09:43;;;;;;;16.90;8.17;;;-0.70;1.00;;;;;;5074853;28;20206;-74
2022/02/27 01:12:11;;;;;;;17.23;8.53;;;-0.50;1.00;;;;;;5074876;28;20232;-75
2022/02/27 01:14:38;;;;;;;16.43;8.10;;;-0.70;1.00;;;;;;5074092;28;20218;-74
2022/02/27 01:17:07;;;;;;;19.77;8.30;;;-0.60;1.00;;;;;;5075110;28;20198;-74
2022/02/27 01:19:34;;;;;;;18.67;8.77;;;-0.50;1.00;;;;;;5074711;28;20714;-74
2022/02/27 01:22:01;;;;;;;18.63;7.87;;;-0.60;1.00;;;;;;5074138;28;20230;-74
2022/02/27 01:24:28;;;;;;;15.67;7.90;;;-0.60;1.00;;;;;;5074282;28;20274;-74
2022/02/27 01:26:55;;;;;;;19.47;8.57;;;-0.50;1.00;;;;;;5073923;28;20596;-74
2022/02/27 01:29:22;;;;;;;23.40;8.17;;;-0.50;1.00;;;;;;5074199;28;20190;-74
2022/02/27 01:31:49;;;;;;;15.63;7.37;;;-0.60;1.00;;;;;;5074154;28;20691;-75
2022/02/27 01:34:18;;;;;;;18.73;7.93;;;-0.60;1.00;;;;;;5074611;28;20637;-74
2022/02/27 01:36:45;;;;;;;15.40;7.47;;;-0.50;1.00;;;;;;5074482;28;20268;-74
2022/02/27 01:39:12;;;;;;;15.97;7.30;;;-0.60;1.00;;;;;;5074833;28;20244;-74
2022/02/27 01:41:38;;;;;;;17.30;7.40;;;-0.60;1.00;;;;;;5074400;28;20260;-74
2022/02/27 01:44:06;;;;;;;16.77;8.10;;;-0.60;1.00;;;;;;5074198;28;20612;-75
2022/02/27 01:46:34;;;;;;;18.37;7.97;;;-0.50;1.00;;;;;;5074514;28;20206;-74
2022/02/27 01:49:01;;;;;;;15.63;7.10;;;-0.40;1.00;;;;;;5074162;28;20208;-74
2022/02/27 01:51:29;;;;;;;15.63;7.73;;;-0.40;4.50;;;;;;5073416;28;20244;-74
2022/02/27 01:53:56;;;;;;;15.53;8.07;;;-0.60;1.00;;;;;;5073419;28;20199;-74
2022/02/27 01:56:24;;;;;;;14.80;7.17;;;-0.60;1.00;;;;;;5074184;28;20191;-75
2022/02/27 01:58:51;;;;;;;12.90;6.47;;;-0.60;1.00;;;;;;5073621;28;20269;-74
2022/02/27 02:01:18;;;;;;;14.43;6.80;;;-0.70;1.00;;;;;;5074351;28;20198;-74
2022/02/27 02:03:45;;;;;;;12.27;6.27;;;-0.60;1.00;;;;;;5074171;28;20199;-75
2022/02/27 02:06:12;;;;;;;14.20;7.03;;;-0.80;1.00;;;;;;5074400;28;20247;-74
2022/02/27 02:08:41;;;;;;;12.93;6.43;;;-0.70;1.00;;;;;;5073823;28;20652;-74
2022/02/27 02:11:08;;;;;;;16.97;7.40;;;-0.80;1.00;;;;;;5074415;28;20194;-74
2022/02/27 02:13:35;;;;;;;15.70;6.53;;;-0.80;1.00;;;;;;5073683;28;20202;-70
2022/02/27 02:16:02;;;;;;;11.30;6.17;;;-0.90;1.00;;;;;;5073083;28;20210;-70
2022/02/27 02:18:29;;;;;;;16.43;6.83;;;-1.00;1.00;;;;;;5073519;28;20206;-70
2022/02/27 02:20:57;;;;;;;12.90;6.43;;;-0.90;1.00;;;;;;5073830;28;20194;-69
2022/02/27 02:23:24;;;;;;;13.63;6.63;;;-0.90;1.00;;;;;;5072680;28;20260;-70
2022/02/27 02:25:51;;;;;;;12.80;6.10;;;-1.00;1.00;;;;;;5073464;28;20275;-70
2022/02/27 02:28:18;;;;;;;10.93;5.87;;;-1.10;1.00;;;;;;5073073;28;20207;-70
2022/02/27 02:30:45;;;;;;;17.10;7.17;;;-0.90;1.00;;;;;;5073501;28;20206;-71
2022/02/27 02:33:12;;;;;;;13.17;6.00;;;-0.80;1.00;;;;;;5073802;28;20198;-71
2022/02/27 02:35:41;;;;;;;15.33;6.37;;;-1.00;1.00;;;;;;5072776;28;20194;-71
2022/02/27 02:38:09;;;;;;;16.47;7.07;;;-1.00;1.00;;;;;;5074284;28;20289;-71
2022/02/27 02:40:36;;;;;;;12.23;6.10;;;-1.10;1.00;;;;;;5072240;28;20637;-71
2022/02/27 02:43:03;;;;;;;14.17;6.50;;;-1.20;1.00;;;;;;5073384;28;20206;-71
2022/02/27 02:45:30;;;;;;;12.73;6.30;;;-1.10;1.00;;;;;;5072053;28;20226;-71
2022/02/27 02:47:59;;;;;;;14.20;6.50;;;-1.20;1.00;;;;;;5072407;28;20256;-71
2022/02/27 02:50:26;;;;;;;16.63;6.50;;;-1.30;1.00;;;;;;5073552;28;20252;-71
2022/02/27 02:52:52;;;;;;;11.53;6.00;;;-1.00;1.00;;;;;;5072136;28;20653;-71
2022/02/27 02:55:21;;;;;;;13.33;6.13;;;-1.00;1.00;;;;;;5062156;28;20198;-71
2022/02/27 02:57:48;;;;;;;11.67;6.20;;;-1.10;1.00;;;;;;5073453;28;20190;-71
2022/02/27 03:00:16;;;;;;;15.10;6.70;;;-1.20;1.00;;;;;;5073078;28;20237;-71
2022/02/27 03:02:43;;;;;;;14.37;6.37;;;-1.30;1.00;;;;;;5072548;28;20214;-71
2022/02/27 03:05:11;;;;;;;12.80;6.83;;;-1.10;1.00;;;;;;5072561;28;20312;-71
2022/02/27 03:07:40;;;;;;;10.77;5.70;;;-1.20;1.00;;;;;;5071844;28;20661;-71
2022/02/27 03:10:09;;;;;;;13.33;5.80;;;-1.10;1.00;;;;;;5073343;28;20238;-71
2022/02/27 03:12:38;;;;;;;12.43;6.40;;;-1.20;1.00;;;;;;5073081;28;20208;-71
2022/02/27 03:15:08;;;;;;;11.63;6.43;;;-1.20;1.00;;;;;;5073398;28;20611;-71
2022/02/27 03:17:35;;;;;;;14.33;6.10;;;-1.20;1.00;;;;;;5073229;28;20252;-71
2022/02/27 03:20:02;;;;;;;12.93;5.80;;;-1.20;1.00;;;;;;5072941;28;20742;-71
2022/02/27 03:22:29;;;;;;;13.77;6.20;;;-1.20;17.20;;;;;;5072376;28;20665;-71
2022/02/27 03:24:56;;;;;;;10.70;5.87;;;-1.10;18.40;;;;;;5071830;28;20230;-71
2022/02/27 03:27:23;;;;;;;12.53;7.00;;;-1.20;19.00;;;;;;5072788;28;20199;-74
2022/02/27 03:29:52;;;;;;;15.33;5.93;;;-1.40;1.00;;;;;;5071619;28;20203;-74
2022/02/27 03:32:19;;;;;;;15.67;6.40;;;-1.30;1.00;;;;;;5072619;28;20232;-75
2022/02/27 03:34:46;;;;;;;17.27;7.20;;;-1.20;44.90;;;;;;5072729;28;20214;-71
2022/02/27 03:37:13;;;;;;;14.30;6.57;;;-1.20;37.00;;;;;;5072503;28;20194;-71
2022/02/27 03:39:40;;;;;;;14.83;6.33;;;-1.20;26.20;;;;;;5071640;28;20244;-71
2022/02/27 03:42:07;;;;;;;15.87;7.53;;;-0.90;99.90;;;;;;5072390;28;20210;-71
2022/02/27 03:44:34;;;;;;;13.90;6.40;;;-0.90;99.90;;;;;;5071849;28;20222;-71
2022/02/27 03:47:02;;;;;;;15.10;6.47;;;-0.80;99.90;;;;;;5071650;28;20206;-71
2022/02/27 03:49:29;;;;;;;12.93;6.30;;;-0.80;99.90;;;;;;5072419;28;20213;-71
2022/02/27 03:51:56;;;;;;;14.20;6.30;;;-0.80;99.20;;;;;;5071570;28;20205;-71
2022/02/27 03:54:23;;;;;;;12.90;6.17;;;-0.90;93.30;;;;;;5071356;28;20237;-68
2022/02/27 03:56:50;;;;;;;11.60;6.17;;;-0.80;95.40;;;;;;5072039;28;20214;-68
2022/02/27 03:59:18;;;;;;;12.43;6.07;;;-0.90;64.40;;;;;;5071260;28;20194;-68
2022/02/27 04:01:45;;;;;;;15.33;7.73;;;-1.20;32.30;;;;;;5072243;28;20202;-69
2022/02/27 04:04:13;;;;;;;18.00;6.97;;;-1.10;95.70;;;;;;5071281;28;20577;-69
2022/02/27 04:06:40;;;;;;;16.50;7.60;;;-1.00;99.90;;;;;;5071668;28;20284;-69
2022/02/27 04:09:07;;;;;;;14.50;6.90;;;-1.10;99.90;;;;;;5071932;28;20260;-69
2022/02/27 04:11:34;;;;;;;15.33;7.30;;;-1.10;99.90;;;;;;5072006;28;20210;-69
2022/02/27 04:14:01;;;;;;;14.00;6.73;;;-1.00;99.90;;;;;;5071767;28;20206;-69
2022/02/27 04:16:28;;;;;;;15.13;6.93;;;-1.00;99.90;;;;;;5062366;28;20199;-74
2022/02/27 04:18:55;;;;;;;18.37;7.23;;;-0.90;99.90;;;;;;5060908;28;20652;-74
2022/02/27 04:21:24;;;;;;;12.90;6.97;;;-0.90;99.90;;;;;;5071165;28;20725;-74
2022/02/27 04:23:51;;;;;;;15.00;7.10;;;-0.80;99.90;;;;;;5071530;28;20729;-74
2022/02/27 04:26:18;;;;;;;12.07;7.00;;;-0.80;99.90;;;;;;5071984;28;20218;-69
2022/02/27 04:28:45;;;;;;;17.07;6.60;;;-0.90;99.90;;;;;;5051684;28;20207;-71
2022/02/27 04:31:13;;;;;;;17.13;7.00;;;-0.90;99.90;;;;;;5069512;28;20640;-71
2022/02/27 04:33:40;;;;;;;12.43;6.00;;;-1.00;99.90;;;;;;5071878;28;20645;-70
2022/02/27 04:36:07;;;;;;;12.17;6.20;;;-0.80;99.90;;;;;;5071024;28;20206;-70
2022/02/27 04:38:35;;;;;;;11.87;6.13;;;-0.90;99.90;;;;;;5071662;28;20656;-70
2022/02/27 04:41:02;;;;;;;11.50;6.20;;;-0.90;99.90;;;;;;5070876;28;20256;-69
2022/02/27 04:43:29;;;;;;;14.70;6.43;;;-1.00;99.90;;;;;;5065381;28;20198;-69
2022/02/27 04:45:56;;;;;;;12.40;6.20;;;-0.80;99.90;;;;;;5070345;28;20272;-67
2022/02/27 04:48:24;;;;;;;16.70;6.47;;;-0.80;99.90;;;;;;5071119;28;20194;-67
2022/02/27 04:50:51;;;;;;;15.83;6.43;;;-0.70;99.90;;;;;;5071277;28;20210;-73
2022/02/27 04:53:18;;;;;;;14.50;7.50;;;-0.80;99.90;;;;;;5070501;28;20706;-74
2022/02/27 04:55:46;;;;;;;15.23;6.33;;;-0.90;99.90;;;;;;5071641;28;20648;-74
2022/02/27 04:58:13;;;;;;;16.13;6.93;;;-1.00;99.90;;;;;;5070529;28;20291;-67
2022/02/27 05:00:40;;;;;;;17.03;8.07;;;-1.00;99.90;;;;;;5070829;28;20198;-67
2022/02/27 05:03:07;;;;;;;13.77;6.60;;;-1.10;99.90;;;;;;5071354;28;20232;-67
2022/02/27 05:05:34;;;;;;;16.13;6.93;;;-1.20;99.90;;;;;;5067061;28;20222;-68
2022/02/27 05:08:01;;;;;;;15.80;6.33;;;-1.10;99.90;;;;;;5068811;28;20202;-68
2022/02/27 05:10:28;;;;;;;17.37;6.37;;;-1.30;99.90;;;;;;5067305;28;20207;-67
2022/02/27 05:12:57;;;;;;;15.17;6.40;;;-1.20;99.90;;;;;;5068103;28;20202;-67
2022/02/27 05:15:24;;;;;;;15.20;6.23;;;-1.00;99.90;;;;;;5069218;28;20215;-70
2022/02/27 05:17:52;;;;;;;13.90;6.77;;;-1.20;99.90;;;;;;5069801;28;20658;-74
2022/02/27 05:20:19;;;;;;;14.93;6.53;;;-1.20;99.90;;;;;;5067933;28;20203;-74
2022/02/27 05:22:47;;;;;;;16.73;6.70;;;-1.30;99.90;;;;;;5066118;28;20245;-74
2022/02/27 05:25:18;;;;;;;14.03;6.73;;;-1.10;99.90;;;;;;5072350;28;20657;-74
2022/02/27 05:27:45;;;;;;;18.30;7.00;;;-1.10;99.90;;;;;;5070512;28;20229;-68
2022/02/27 05:30:14;;;;;;;13.93;6.60;;;-1.20;99.90;;;;;;5069629;28;20206;-74
2022/02/27 05:32:41;;;;;;;17.00;7.00;;;-1.10;99.90;;;;;;5077029;28;20612;-74
2022/02/27 05:35:09;;;;;;;18.27;7.20;;;-1.20;99.90;;;;;;5073642;28;20251;-74
2022/02/27 05:37:36;;;;;;;19.77;8.40;;;-1.40;99.90;;;;;;5076047;28;20203;-69
2022/02/27 05:40:05;;;;;;;14.87;6.90;;;-1.40;99.90;;;;;;5067166;28;20198;-69
2022/02/27 05:42:32;;;;;;;12.80;6.67;;;-1.60;99.90;;;;;;5071230;28;20210;-67
2022/02/27 05:44:59;;;;;;;15.10;6.90;;;-1.50;99.90;;;;;;5074277;28;20226;-68
2022/02/27 05:47:27;;;;;;;22.43;9.83;;;-1.60;99.90;;;;;;5070730;28;20206;-68
2022/02/27 05:49:54;;;;;;;13.17;6.70;;;-1.50;99.90;;;;;;5067441;28;20243;-67
2022/02/27 05:52:21;;;;;;;16.87;7.53;;;-1.50;99.90;;;;;;5076944;28;20199;-68
2022/02/27 05:54:49;;;;;;;17.70;6.53;;;-1.60;99.90;;;;;;5076626;28;20201;-70
2022/02/27 05:57:16;;;;;;;14.47;6.67;;;-1.60;99.90;;;;;;5074785;28;20206;-70
2022/02/27 05:59:43;;;;;;;11.67;6.00;;;-1.60;99.90;;;;;;5068248;28;20257;-70
2022/02/27 06:02:10;;;;;;;14.77;6.17;;;-1.70;99.90;;;;;;5071476;28;20279;-71
2022/02/27 06:04:39;;;;;;;13.30;6.33;;;-1.70;99.90;;;;;;5076658;28;20256;-68
2022/02/27 06:07:06;;;;;;;13.90;6.03;;;-1.70;99.90;;;;;;5071832;28;20222;-70
2022/02/27 06:09:33;;;;;;;12.40;6.07;;;-1.60;99.90;;;;;;5069602;28;20730;-71
2022/02/27 06:12:00;;;;;;;13.07;6.03;;;-1.80;89.90;;;;;;5074044;28;20260;-74
2022/02/27 06:14:33;;;;;;;14.53;7.07;;;-1.70;91.90;;;;;;5070668;28;20293;-68
2022/02/27 06:17:00;;;;;;;13.63;6.47;;;-1.80;90.00;;;;;;5070368;28;20206;-68
2022/02/27 06:19:26;;;;;;;14.27;6.23;;;-1.70;90.60;;;;;;5069950;28;20206;-74
2022/02/27 06:21:55;;;;;;;11.43;5.33;;;-1.70;83.60;;;;;;5070675;28;20202;-70
2022/02/27 06:24:22;;;;;;;15.57;5.73;;;-1.80;63.90;;;;;;5075727;28;20194;-71
2022/02/27 06:26:49;;;;;;;12.27;5.27;;;-1.60;87.00;;;;;;5073896;28;20262;-69
2022/02/27 06:29:16;;;;;;;13.93;5.63;;;-1.70;66.20;;;;;;5073795;28;20206;-70
2022/02/27 06:31:43;;;;;;;13.60;6.27;;;-1.60;90.30;;;;;;5072981;28;20195;-70
2022/02/27 06:34:12;;;;;;;15.03;6.30;;;-1.50;99.90;;;;;;5072735;28;20649;-74
2022/02/27 06:36:39;;;;;;;10.00;5.47;;;-1.30;99.90;;;;;;5074426;28;20210;-70
2022/02/27 06:39:08;;;;;;;14.63;6.83;;;-1.40;99.90;;;;;;5073775;28;20206;-70
2022/02/27 06:41:34;;;;;;;11.13;5.53;;;-1.40;99.90;;;;;;5073547;28;20289;-69
2022/02/27 06:44:01;;;;;;;15.47;6.33;;;-1.20;99.90;;;;;;5073691;28;20648;-69
2022/02/27 06:46:28;;;;;;;19.73;6.47;;;-1.30;99.90;;;;;;5072625;28;20616;-70
2022/02/27 06:48:55;;;;;;;15.40;6.33;;;-1.30;99.90;;;;;;5073450;28;20294;-70
2022/02/27 06:51:22;;;;;;;13.20;6.20;;;-1.30;97.60;;;;;;5073059;28;20210;-70
2022/02/27 06:53:49;;;;;;;12.13;5.40;;;-1.30;91.20;;;;;;5072906;28;20213;-69
2022/02/27 06:56:17;;;;;;;13.30;6.63;;;-1.20;69.90;;;;;;5072257;28;20285;-70
2022/02/27 06:58:44;;;;;;;12.90;5.87;;;-1.10;90.80;;;;;;5072904;28;20226;-70
2022/02/27 07:01:10;;;;;;;16.77;6.73;;;-1.00;96.50;;;;;;5072795;28;20198;-70
2022/02/27 07:03:37;;;;;;;14.90;6.03;;;-0.80;99.90;;;;;;5073603;28;20293;-70
2022/02/27 07:06:04;;;;;;;14.63;6.20;;;-0.80;93.40;;;;;;5072568;28;20240;-70
2022/02/27 07:08:31;;;;;;;14.67;6.27;;;-0.80;69.60;;;;;;5073205;28;20205;-70
2022/02/27 07:11:02;;;;;;;11.43;5.83;;;-0.60;90.80;;;;;;5073012;28;20203;-70
2022/02/27 07:13:31;;;;;;;12.57;6.53;;;-0.40;94.30;;;;;;5072175;28;20247;-70
2022/02/27 07:15:57;;;;;;;16.97;6.57;;;0.00;99.90;;;;;;5072258;28;20213;-69
2022/02/27 07:18:24;;;;;;;16.27;6.60;;;0.20;99.90;;;;;;5072229;28;20422;-70
2022/02/27 07:20:51;;;;;;;15.73;6.80;;;0.20;97.20;;;;;;5072491;28;20297;-70
2022/02/27 07:23:18;;;;;;;11.27;6.13;;;0.30;64.70;;;;;;5072487;28;20568;-70
2022/02/27 07:25:45;;;;;;;16.53;7.70;;;0.40;49.50;;;;;;5072870;28;20225;-69
2022/02/27 07:28:14;;;;;;;14.17;6.87;;;0.50;11.50;;;;;;5072401;28;20199;-69
2022/02/27 07:30:42;;;;;;;14.57;7.67;;;0.60;1.00;;;;;;5072725;28;20205;-70
2022/02/27 07:33:09;;;;;;;16.73;7.80;;;1.00;1.00;;;;;;5073039;28;20208;-70
2022/02/27 07:35:36;;;;;;;19.90;7.33;;;1.20;1.00;;;;;;5072666;28;20212;-70
2022/02/27 07:38:03;;;;;;;17.87;7.43;;;1.50;1.00;;;;;;5071264;28;20195;-70
2022/02/27 07:40:30;;;;;;;18.00;7.33;;;1.90;1.00;;;;;;5072558;28;20659;-70
2022/02/27 07:42:57;;;;;;;15.17;7.57;;;2.30;1.00;;;;;;5067594;28;21491;-70
2022/02/27 07:45:24;;;;;;;10.63;6.00;;;3.00;1.00;;;;;;5062848;28;20194;-70
2022/02/27 07:47:52;;;;;;;14.80;6.13;;;4.80;99.90;;;;;;5068676;28;20224;-70
2022/02/27 07:50:19;;;;;;;11.17;6.43;;;5.60;99.90;;;;;;5067240;28;20645;-70
2022/02/27 07:52:45;;;;;;;25.67;13.90;;;4.80;1.00;;;;;;5068749;28;20259;-70
2022/02/27 07:55:12;;;;;;;14.10;6.53;;;3.80;1.00;;;;;;5057063;28;20207;-70
2022/02/27 07:57:39;;;;;;;13.30;6.40;;;3.30;1.00;;;;;;5066361;28;20245;-70
2022/02/27 08:00:08;;;;;;;11.73;6.07;;;3.50;99.90;;;;;;5060966;28;20298;-70
2022/02/27 08:02:34;;;;;;;13.60;6.60;;;3.70;1.00;;;;;;5065100;28;20202;-70
2022/02/27 08:05:03;;;;;;;14.10;6.37;;;3.70;99.90;;;;;;5060327;28;20316;-69
2022/02/27 08:07:30;;;;;;;13.67;6.03;;;3.70;99.90;;;;;;5067010;28;20219;-70
2022/02/27 08:09:57;;;;;;;10.73;5.67;;;3.90;1.00;;;;;;5064929;28;20210;-70
2022/02/27 08:12:23;;;;;;;13.77;6.37;;;3.60;1.00;;;;;;5060962;28;20294;-70
2022/02/27 08:14:50;;;;;;;13.67;5.93;;;3.80;1.00;;;;;;5070120;28;20210;-71
2022/02/27 08:17:18;;;;;;;13.33;6.40;;;4.50;1.00;;;;;;5067485;28;20199;-71
2022/02/27 08:19:45;;;;;;;14.83;6.63;;;4.10;99.90;;;;;;5065095;28;20213;-70
2022/02/27 08:22:13;;;;;;;12.43;6.10;;;4.60;99.90;;;;;;5065907;28;20316;-70
2022/02/27 08:24:40;;;;;;;14.10;5.80;;;5.20;99.90;;;;;;5071375;28;20210;-71
2022/02/27 08:27:07;;;;;;;12.50;6.10;;;5.20;1.00;;;;;;5056495;28;20218;-70
2022/02/27 08:29:34;;;;;;;12.47;6.00;;;5.70;99.90;;;;;;5066392;28;20210;-70
2022/02/27 08:32:01;;;;;;;15.97;6.50;;;5.00;1.00;;;;;;5063510;28;20206;-70
2022/02/27 08:34:29;;;;;;;12.37;6.30;;;5.60;99.90;;;;;;5061397;28;20225;-70
2022/02/27 08:36:56;;;;;;;10.93;6.60;;;5.50;99.90;;;;;;5068422;28;20292;-71
2022/02/27 08:39:24;;;;;;;14.80;6.87;;;6.90;1.00;;;;;;5069019;28;20202;-70
2022/02/27 08:41:51;;;;;;;12.77;5.70;;;6.40;90.90;;;;;;5060950;28;20202;-70
2022/02/27 08:44:18;;;;;;;15.67;6.10;;;6.70;99.90;;;;;;5066266;28;20202;-71
2022/02/27 08:46:45;;;;;;;9.90;5.77;;;6.80;1.00;;;;;;5064952;28;20222;-71
2022/02/27 08:49:12;;;;;;;11.03;6.00;;;5.70;1.00;;;;;;5057962;28;20206;-70
2022/02/27 08:51:39;;;;;;;15.27;6.50;;;5.80;1.00;;;;;;5064421;28;20602;-71
2022/02/27 08:54:06;;;;;;;16.80;6.67;;;6.30;1.00;;;;;;5064126;28;20199;-70
2022/02/27 08:56:34;;;;;;;12.60;6.00;;;6.20;1.00;;;;;;5064988;28;20207;-70
2022/02/27 08:59:01;;;;;;;10.77;6.40;;;5.80;91.20;;;;;;5065915;28;20211;-70
2022/02/27 09:01:27;;;;;;;13.30;6.10;;;5.90;99.90;;;;;;5064452;28;20229;-70
2022/02/27 09:03:54;;;;;;;11.00;6.30;;;5.60;1.00;;;;;;5062765;28;20202;-71
2022/02/27 09:06:21;;;;;;;15.77;6.63;;;5.90;1.00;;;;;;5065916;28;20222;-71
2022/02/27 09:08:48;;;;;;;11.40;5.77;;;5.70;1.00;;;;;;5061376;28;20673;-70
2022/02/27 09:11:15;;;;;;;13.80;5.80;;;5.40;1.00;;;;;;5071913;28;20203;-71
2022/02/27 09:13:43;;;;;;;14.10;6.10;;;5.60;1.00;;;;;;5064760;28;20233;-71
2022/02/27 09:16:10;;;;;;;10.73;6.27;;;5.90;1.00;;;;;;5068339;28;20206;-71
2022/02/27 09:18:37;;;;;;;16.70;6.40;;;5.90;1.00;;;;;;5064926;28;20206;-71
2022/02/27 09:21:04;;;;;;;12.07;6.40;;;6.10;99.90;;;;;;5069765;28;20301;-71
2022/02/27 09:23:31;;;;;;;11.67;6.23;;;5.90;1.00;;;;;;5066514;28;20289;-71
2022/02/27 09:25:58;;;;;;;13.47;6.43;;;6.20;1.00;;;;;;5069703;28;20518;-71
2022/02/27 09:28:25;;;;;;;17.10;7.10;;;6.30;8.40;;;;;;5075304;28;20321;-71
2022/02/27 09:30:53;;;;;;;12.77;6.33;;;6.40;99.90;;;;;;5075491;28;20199;-71
2022/02/27 09:33:20;;;;;;;17.37;6.47;;;6.80;99.90;;;;;;5074252;28;20195;-71
2022/02/27 09:35:47;;;;;;;13.10;6.10;;;6.90;99.90;;;;;;5070049;28;20625;-71
2022/02/27 09:38:13;;;;;;;13.90;6.37;;;6.60;1.00;;;;;;5071160;28;20207;-71
2022/02/27 09:40:40;;;;;;;11.70;6.30;;;6.50;1.00;;;;;;5068635;28;20202;-71
2022/02/27 09:43:07;;;;;;;10.77;5.73;;;6.70;1.00;;;;;;5074838;28;20387;-71
2022/02/27 09:45:35;;;;;;;12.70;6.30;;;7.00;99.90;;;;;;5066965;28;20207;-71
2022/02/27 09:48:03;;;;;;;12.77;6.33;;;6.70;1.00;;;;;;5070972;28;20220;-71
2022/02/27 09:50:30;;;;;;;11.93;6.20;;;6.80;1.00;;;;;;5072365;28;20198;-71
2022/02/27 09:52:58;;;;;;;10.17;6.37;;;6.70;1.00;;;;;;5072968;28;20209;-70
2022/02/27 09:55:25;;;;;;;11.33;5.90;;;6.70;99.90;;;;;;5069389;28;20198;-71
2022/02/27 09:57:52;;;;;;;10.47;6.30;;;6.50;99.90;;;;;;5074475;28;20194;-70
2022/02/27 10:00:20;;;;;;;10.43;5.63;;;6.70;1.00;;;;;;5075546;28;20202;-70
2022/02/27 10:03:11;;;;;;;11.80;6.00;;;6.70;99.90;;;;;;5070828;28;20213;-70
2022/02/27 10:05:40;;;;;;;14.50;6.53;;;6.80;99.90;;;;;;5075686;28;20214;-70
2022/02/27 10:08:08;;;;;;;12.13;6.07;;;6.90;1.00;;;;;;5073906;28;20222;-70
2022/02/27 10:10:36;;;;;;;11.33;5.17;;;6.80;1.00;;;;;;5070470;28;20203;-70
2022/02/27 10:13:03;;;;;;;8.87;5.27;;;7.20;1.00;;;;;;5071779;28;20206;-70
2022/02/27 10:15:30;;;;;;;8.77;5.03;;;7.20;1.00;;;;;;5074141;28;20226;-68
2022/02/27 10:17:57;;;;;;;7.97;5.27;;;7.20;99.90;;;;;;5071038;28;20204;-68
2022/02/27 10:20:27;;;;;;;8.70;5.10;;;7.30;1.00;;;;;;5068727;28;20454;-68
2022/02/27 10:22:55;;;;;;;12.47;5.43;;;7.10;99.90;;;;;;5074128;28;20288;-68
2022/02/27 10:25:24;;;;;;;13.13;5.87;;;7.20;1.00;;;;;;5067433;28;20203;-68
2022/02/27 10:27:53;;;;;;;11.47;6.07;;;7.40;1.00;;;;;;5066419;28;20726;-68
2022/02/27 10:30:26;;;;;;;12.43;5.70;;;7.30;99.90;;;;;;5073483;28;20198;-68
2022/02/27 10:32:57;;;;;;;12.93;6.17;;;7.30;1.00;;;;;;5063740;28;20249;-68
2022/02/27 10:35:45;;;;;;;11.77;6.07;;;7.40;1.00;;;;;;5066349;28;20226;-67
2022/02/27 10:38:15;;;;;;;13.63;7.50;;;7.50;1.00;;;;;;5074511;28;20614;-68
2022/02/27 10:40:46;;;;;;;16.00;8.37;;;7.60;1.00;;;;;;5071397;28;20206;-68
2022/02/27 10:43:14;;;;;;;14.33;7.67;;;7.40;99.90;;;;;;5073515;28;20205;-68
2022/02/27 10:45:43;;;;;;;16.57;8.53;;;7.50;1.00;;;;;;5069200;28;20208;-68
2022/02/27 10:48:12;;;;;;;16.43;7.83;;;7.60;68.80;;;;;;5071793;28;20563;-68
2022/02/27 10:50:40;;;;;;;16.83;7.27;;;7.70;99.90;;;;;;5069915;28;20206;-68
2022/02/27 10:53:08;;;;;;;14.97;7.90;;;7.70;1.00;;;;;;5072842;28;20194;-68
2022/02/27 10:55:36;;;;;;;12.83;7.00;;;8.20;1.00;;;;;;5078269;28;20206;-68
2022/02/27 10:58:04;;;;;;;12.67;6.70;;;8.20;1.00;;;;;;5065821;28;20201;-68
2022/02/27 11:00:33;;;;;;;11.43;7.20;;;8.10;1.00;;;;;;5062099;28;20553;-68
2022/02/27 11:03:02;;;;;;;14.60;7.27;;;8.20;1.00;;;;;;5074150;28;20536;-68
2022/02/27 11:05:30;;;;;;;16.50;7.37;;;8.10;99.90;;;;;;5066483;28;20206;-68
2022/02/27 11:07:59;;;;;;;12.07;7.63;;;8.00;1.00;;;;;;5072131;28;20276;-68
2022/02/27 11:10:29;;;;;;;15.77;7.73;;;8.30;1.00;;;;;;5072084;28;20227;-68
2022/02/27 11:12:59;;;;;;;15.53;7.10;;;8.20;1.00;;;;;;5064072;28;21711;-68
2022/02/27 11:15:26;;;;;;;14.87;7.07;;;8.30;1.00;;;;;;5071017;28;20548;-68
2022/02/27 11:17:53;;;;;;;13.77;6.73;;;8.40;99.90;;;;;;5076591;28;20213;-68
2022/02/27 11:20:22;;;;;;;13.33;6.90;;;8.30;1.00;;;;;;5067771;28;20210;-68
2022/02/27 11:22:50;;;;;;;10.83;6.07;;;8.50;1.00;;;;;;5069499;28;20195;-68
2022/02/27 11:25:18;;;;;;;14.17;6.90;;;8.80;1.00;;;;;;5071405;28;20202;-68
2022/02/27 11:27:49;;;;;;;11.03;5.47;;;8.20;1.00;;;;;;5071876;28;20214;-68
2022/02/27 11:30:20;;;;;;;10.80;4.90;;;8.00;99.90;;;;;;5061600;28;20209;-68
2022/02/27 11:32:52;;;;;;;8.17;4.17;;;8.00;1.00;;;;;;5068481;28;20298;-67
2022/02/27 11:35:42;;;;;;;8.80;4.87;;;8.00;1.00;;;;;;5063462;28;20199;-68
2022/02/27 11:38:11;;;;;;;11.87;6.10;;;8.10;1.00;;;;;;5063341;28;20238;-68
2022/02/27 11:40:56;;;;;;;15.67;5.63;;;8.10;33.40;;;;;;5069127;28;20202;-68
2022/02/27 11:43:44;;;;;;;9.97;5.13;;;8.50;99.90;;;;;;5067853;28;20641;-67
2022/02/27 11:46:13;;;;;;;12.00;4.53;;;7.90;1.00;;;;;;5063826;28;20198;-66
2022/02/27 11:49:00;;;;;;;10.93;5.37;;;7.90;94.20;;;;;;5062914;28;20223;-68
2022/02/27 11:51:53;;;;;;;9.23;4.57;;;7.90;99.90;;;;;;5070777;28;20649;-67
2022/02/27 11:54:22;;;;;;;11.13;5.00;;;8.00;1.00;;;;;;5062578;28;20212;-68
2022/02/27 11:57:05;;;;;;;13.03;4.60;;;8.20;99.90;;;;;;5071044;28;20200;-67
2022/02/27 11:59:56;;;;;;;9.23;4.20;;;8.10;99.90;;;;;;5072296;28;20560;-67
2022/02/27 12:02:26;;;;;;;8.33;3.60;;;8.20;1.00;;;;;;5058842;28;20664;-67
2022/02/27 12:04:54;;;;;;;8.17;3.87;;;8.20;1.00;;;;;;5066607;28;20202;-67
2022/02/27 12:07:21;;;;;;;9.27;3.90;;;8.30;1.00;;;;;;5066071;28;20226;-67
2022/02/27 12:10:00;;;;;;;10.60;3.83;;;8.20;1.00;;;;;;5065449;28;20216;-67
2022/02/27 12:12:57;;;;;;;10.57;5.20;;;8.30;1.00;;;;;;5061324;28;20720;-67
2022/02/27 12:15:32;;;;;;;8.63;4.10;;;8.20;99.90;;;;;;5068341;28;20214;-67
2022/02/27 12:18:02;;;;;;;9.60;3.70;;;8.20;1.00;;;;;;5067721;28;20197;-67
2022/02/27 12:20:46;;;;;;;9.03;3.70;;;8.10;1.00;;;;;;5061442;28;20214;-67
2022/02/27 12:23:47;;;;;;;8.17;3.80;;;8.10;1.00;;;;;;5067453;28;20292;-67
2022/02/27 12:26:52;;;;;;;6.67;3.43;;;8.10;1.00;;;;;;5064735;28;20248;-67
2022/02/27 12:29:33;;;;;;;10.67;3.13;;;8.20;1.00;;;;;;5066907;28;20225;-67
2022/02/27 12:32:15;;;;;;;7.00;4.17;;;8.20;1.00;;;;;;5069434;28;20206;-67
2022/02/27 12:34:43;;;;;;;7.60;3.50;;;8.00;1.00;;;;;;5057086;28;20260;-67
2022/02/27 12:37:13;;;;;;;9.37;3.10;;;8.00;1.00;;;;;;5066693;28;20202;-67
2022/02/27 12:39:41;;;;;;;8.00;3.50;;;8.40;1.00;;;;;;5067010;28;20289;-68
2022/02/27 12:42:11;;;;;;;9.93;3.77;;;9.40;1.00;;;;;;5065252;28;20221;-68
2022/02/27 12:44:41;;;;;;;8.20;3.40;;;9.60;99.90;;;;;;5060666;28;20210;-68
2022/02/27 12:47:12;;;;;;;10.10;3.70;;;9.20;99.90;;;;;;5072299;28;20944;-67
2022/02/27 12:52:26;;;;;;;12.33;5.60;;;9.50;1.00;;;;;;5062064;28;20670;-67
2022/02/27 12:54:55;;;;;;;12.27;5.63;;;9.20;99.90;;;;;;5069162;28;20201;-68
2022/02/27 12:57:23;;;;;;;10.00;4.97;;;9.00;99.90;;;;;;5068291;28;20209;-68